Time;durP1;ratioP1;P1;durP2;ratioP2;P2;SDS_P1;SDS_P2;PMS_P1;PMS_P2;Temp;Humidity;BMP_temperature;BMP_pressure;BME280_temperature;BME280_humidity;BME280_pressure;Samples;Min_cycle;Max_cycle;Signal;HPM_P1;HPM_P2
2022/04/05 00:00:31;;;;;;;42.80;24.80;;;;;;;-4.83;86.90;97147.64;110069;1247;59688;-65
2022/04/05 00:03:04;;;;;;;34.80;19.90;;;;;;;-4.84;86.73;97143.58;110139;1247;70634;-65
2022/04/05 00:05:35;;;;;;;39.60;25.40;;;;;;;-4.84;85.79;97139.66;109972;1249;67913;-63
2022/04/05 00:08:05;;;;;;;36.30;24.30;;;;;;;-4.82;86.97;97134.19;109907;1249;68424;-66
2022/04/05 00:10:36;;;;;;;26.40;20.80;;;;;;;-4.80;88.17;97134.67;110081;1246;59678;-65
2022/04/05 00:13:06;;;;;;;33.50;20.60;;;;;;;-4.83;87.54;97131.49;110049;1248;59649;-64
2022/04/05 00:15:37;;;;;;;42.50;27.60;;;;;;;-4.85;86.76;97127.10;110012;1249;71377;-64
2022/04/05 00:18:07;;;;;;;44.00;27.00;;;;;;;-4.83;86.96;97126.73;109800;1249;69237;-63
2022/04/05 00:20:37;;;;;;;;;;;;;;;-4.86;86.09;97121.51;109900;1249;69316;-65
2022/04/05 00:23:08;;;;;;;45.60;25.50;;;;;;;-4.90;86.63;97114.77;110074;1246;59960;-63
2022/04/05 00:25:37;;;;;;;35.70;22.40;;;;;;;-4.93;87.60;97111.25;110065;1246;59671;-65
2022/04/05 00:28:08;;;;;;;44.30;27.20;;;;;;;-4.95;88.26;97110.94;109975;1249;71945;-66
2022/04/05 00:30:38;;;;;;;52.50;32.30;;;;;;;-4.98;88.89;97104.37;110088;1247;68546;-62
2022/04/05 00:33:08;;;;;;;57.40;32.90;;;;;;;-4.99;88.84;97103.53;110042;1248;68640;-67
2022/04/05 00:35:38;;;;;;;;;;;;;;;-4.97;89.45;97099.27;110087;1247;60200;-61
2022/04/05 00:38:09;;;;;;;42.20;26.30;;;;;;;-4.97;89.54;97094.15;110095;1247;59668;-63
2022/04/05 00:40:38;;;;;;;44.30;25.30;;;;;;;-4.97;88.68;97093.30;110017;1247;71390;-66
2022/04/05 00:43:09;;;;;;;37.10;22.60;;;;;;;-4.97;88.49;97087.52;110065;1247;69274;-64
2022/04/05 00:45:39;;;;;;;28.20;17.00;;;;;;;-4.98;88.44;97090.44;109980;1250;68667;-66
2022/04/05 00:48:10;;;;;;;23.10;15.90;;;;;;;-5.00;88.48;97087.57;110012;1247;60001;-62
2022/04/05 00:50:41;;;;;;;28.40;19.10;;;;;;;-5.02;88.42;97084.22;110150;1249;59738;-61
2022/04/05 00:53:11;;;;;;;43.50;24.70;;;;;;;-5.04;88.24;97082.88;109996;1247;70645;-64
2022/04/05 00:55:43;;;;;;;46.00;28.50;;;;;;;-5.06;87.60;97081.21;110101;1247;69357;-65
2022/04/05 00:58:16;;;;;;;39.60;24.50;;;;;;;-5.05;87.08;97078.13;109953;1247;69800;-64
2022/04/05 01:00:48;;;;;;;29.60;18.20;;;;;;;-5.03;86.96;97074.20;110056;1247;59750;-69
2022/04/05 01:03:22;;;;;;;36.00;21.30;;;;;;;-5.03;86.70;97071.15;109880;1247;59688;-62
2022/04/05 01:05:58;;;;;;;25.40;16.90;;;;;;;-5.03;86.87;97070.13;110125;1247;71086;-66
2022/04/05 01:08:30;;;;;;;26.00;18.00;;;;;;;-5.02;87.17;97067.21;110155;1247;69386;-69
2022/04/05 01:11:02;;;;;;;29.90;20.60;;;;;;;-5.03;86.94;97062.15;109947;1247;69095;-69
2022/04/05 01:13:33;;;;;;;24.40;17.00;;;;;;;-5.05;86.68;97063.67;109879;1249;59682;-66
2022/04/05 01:16:04;;;;;;;38.10;22.30;;;;;;;-5.06;86.90;97056.58;109999;1247;59695;-66
2022/04/05 01:18:34;;;;;;;35.40;19.20;;;;;;;-5.05;87.05;97059.27;110058;1246;71544;-64
2022/04/05 01:21:04;;;;;;;;;;;;;;;-5.04;87.77;97059.26;110061;1248;69425;-63
2022/04/05 01:23:36;;;;;;;42.30;23.70;;;;;;;-5.04;88.20;97059.25;110025;1247;68683;-66
2022/04/05 01:26:06;;;;;;;38.40;21.40;;;;;;;-5.01;89.29;97057.50;110043;1247;59744;-63
2022/04/05 01:28:36;;;;;;;36.70;22.00;;;;;;;-4.98;89.76;97057.80;109929;1247;59693;-69
2022/04/05 01:31:08;;;;;;;44.80;23.90;;;;;;;-5.00;89.64;97055.77;110026;1247;71628;-67
2022/04/05 01:33:38;;;;;;;38.80;23.20;;;;;;;-5.02;88.54;97053.27;110061;1249;69199;-69
2022/04/05 01:36:20;;;;;;;;;;;;;;;-5.02;88.28;97057.54;109855;1249;69406;-69
2022/04/05 01:38:51;;;;;;;37.60;22.50;;;;;;;-5.01;88.67;97053.59;110035;1247;59703;-65
2022/04/05 01:41:23;;;;;;;52.00;27.70;;;;;;;-5.01;88.34;97049.00;110110;1247;59685;-69
2022/04/05 01:43:53;;;;;;;51.90;28.10;;;;;;;-5.00;87.73;97048.31;109953;1247;71338;-67
2022/04/05 01:46:24;;;;;;;42.40;24.60;;;;;;;-5.01;88.15;97049.85;109860;1249;69856;-66
2022/04/05 01:48:55;;;;;;;33.00;20.00;;;;;;;-5.01;88.36;97046.80;109969;1248;69377;-64
2022/04/05 01:51:24;;;;;;;47.50;26.50;;;;;;;-5.04;88.47;97045.83;109961;1247;59736;-67
2022/04/05 01:53:57;;;;;;;;;;;;;;;-5.05;88.15;97043.65;109993;1247;59695;-62
2022/04/05 01:56:27;;;;;;;27.70;16.60;;;;;;;-5.08;88.11;97041.64;109992;1247;70896;-62
2022/04/05 01:58:57;;;;;;;35.00;21.40;;;;;;;-5.11;87.52;97036.43;109974;1249;68756;-69
2022/04/05 02:01:27;;;;;;;36.50;20.00;;;;;;;-5.14;87.40;97034.42;109968;1247;69438;-66
2022/04/05 02:03:57;;;;;;;30.60;19.50;;;;;;;-5.17;88.07;97035.84;110077;1247;59649;-64
2022/04/05 02:06:27;;;;;;;29.30;16.70;;;;;;;-5.20;88.49;97034.02;109781;1251;59738;-63
2022/04/05 02:08:58;;;;;;;30.60;18.70;;;;;;;-5.24;88.11;97034.77;109787;1250;71352;-62
2022/04/05 02:11:28;;;;;;;39.80;21.60;;;;;;;-5.26;87.65;97031.91;109694;1249;69199;-64
2022/04/05 02:14:03;;;;;;;24.20;14.60;;;;;;;-5.26;86.67;97029.23;110079;1247;68640;-63
2022/04/05 02:16:34;;;;;;;47.70;27.90;;;;;;;-5.25;86.82;97029.53;110053;1247;59758;-62
2022/04/05 02:19:06;;;;;;;39.80;23.40;;;;;;;-5.25;87.48;97031.59;110051;1247;59685;-61
2022/04/05 02:21:37;;;;;;;42.30;25.20;;;;;;;-5.28;87.19;97030.25;109788;1249;71569;-63
2022/04/05 02:24:09;;;;;;;25.40;14.50;;;;;;;-5.30;87.51;97031.30;109671;1248;69398;-64
2022/04/05 02:26:39;;;;;;;36.90;21.00;;;;;;;-5.31;86.19;97028.80;109788;1250;68539;-69
2022/04/05 02:29:11;;;;;;;47.00;24.90;;;;;;;-5.29;85.23;97024.67;110014;1250;59738;-64
2022/04/05 02:31:44;;;;;;;41.80;21.90;;;;;;;-5.25;84.84;97021.54;110020;1247;59686;-64
2022/04/05 02:34:14;;;;;;;;;;;;;;;-5.20;85.62;97023.33;110025;1249;71499;-64
2022/04/05 02:36:50;;;;;;;34.90;19.30;;;;;;;-5.17;85.72;97020.73;110047;1249;68770;-66
2022/04/05 02:39:20;;;;;;;38.40;23.50;;;;;;;-5.15;85.79;97023.23;110011;1247;69615;-66
2022/04/05 02:41:54;;;;;;;46.80;26.80;;;;;;;-5.12;86.67;97024.55;109961;1250;59667;-67
2022/04/05 02:44:24;;;;;;;49.90;25.50;;;;;;;-5.12;86.78;97023.70;110006;1248;59658;-66
2022/04/05 02:47:04;;;;;;;47.30;26.80;;;;;;;-5.14;87.19;97019.98;109944;1247;70952;-62
2022/04/05 02:49:36;;;;;;;23.00;13.90;;;;;;;-5.18;87.42;97018.36;109874;1250;68653;-68
2022/04/05 02:52:09;;;;;;;31.50;20.60;;;;;;;-5.21;86.82;97013.15;109922;1247;68494;-66
2022/04/05 02:54:47;;;;;;;39.00;22.90;;;;;;;-5.25;87.83;97009.30;109995;1247;59744;-66
2022/04/05 02:57:18;;;;;;;36.80;21.80;;;;;;;-5.29;89.00;97008.35;110075;1247;59655;-65
2022/04/05 02:59:49;;;;;;;41.40;23.20;;;;;;;-5.34;88.87;97006.41;109839;1249;71339;-67
2022/04/05 03:02:20;;;;;;;;;;;;;;;-5.40;88.35;97009.39;109813;1248;68502;-65
2022/04/05 03:04:51;;;;;;;43.40;23.20;;;;;;;-5.46;87.95;97005.06;109939;1249;68644;-67
2022/04/05 03:07:21;;;;;;;38.50;22.00;;;;;;;-5.46;87.74;96999.46;109926;1250;59695;-68
2022/04/05 03:09:51;;;;;;;25.80;16.00;;;;;;;-5.47;87.42;96995.56;109951;1250;59630;-65
2022/04/05 03:12:23;;;;;;;47.80;25.90;;;;;;;-5.47;87.24;96997.09;110050;1248;71530;-68
2022/04/05 03:14:53;;;;;;;35.10;22.50;;;;;;;-5.47;89.20;96995.05;109952;1249;69387;-61
2022/04/05 03:17:24;;;;;;;43.20;24.80;;;;;;;-5.48;88.86;96994.24;110097;1247;69132;-68
2022/04/05 03:19:54;;;;;;;46.80;25.10;;;;;;;-5.49;88.82;96991.70;109851;1250;59764;-64
2022/04/05 03:22:24;;;;;;;45.40;26.00;;;;;;;-5.49;89.78;96988.83;110020;1248;59653;-68
2022/04/05 03:24:54;;;;;;;40.80;23.20;;;;;;;-5.50;89.14;96981.70;110060;1247;71387;-64
2022/04/05 03:27:25;;;;;;;34.40;20.60;;;;;;;-5.52;88.71;96978.51;109934;1249;68591;-64
2022/04/05 03:29:55;;;;;;;27.80;18.80;;;;;;;-5.55;89.19;96978.89;109947;1248;69241;-67
2022/04/05 03:32:26;;;;;;;37.70;22.20;;;;;;;-5.58;89.23;96976.75;109892;1247;59735;-69
2022/04/05 03:34:57;;;;;;;48.40;24.90;;;;;;;-5.61;89.03;96975.42;109949;1249;60105;-67
2022/04/05 03:37:28;;;;;;;46.00;27.80;;;;;;;-5.65;89.20;96978.70;109935;1249;71337;-70
2022/04/05 03:39:59;;;;;;;25.10;15.60;;;;;;;-5.69;88.95;96979.62;109812;1247;69875;-69
2022/04/05 03:42:30;;;;;;;41.00;24.40;;;;;;;-5.72;88.77;96980.02;109838;1250;69382;-68
2022/04/05 03:45:00;;;;;;;37.50;23.40;;;;;;;-5.74;89.53;96979.52;110014;1247;59673;-67
2022/04/05 03:47:31;;;;;;;41.80;23.20;;;;;;;-5.76;89.84;96980.08;109858;1250;59677;-67
2022/04/05 03:50:01;;;;;;;47.50;25.70;;;;;;;-5.78;89.85;96978.73;109940;1249;71448;-67
2022/04/05 03:52:31;;;;;;;51.40;27.30;;;;;;;-5.77;90.60;96980.93;109714;1249;69649;-69
2022/04/05 03:55:02;;;;;;;36.00;22.00;;;;;;;-5.78;90.46;96980.60;110026;1247;69425;-68
2022/04/05 03:57:34;;;;;;;38.10;23.20;;;;;;;-5.80;90.29;96982.50;109898;1248;59712;-66
2022/04/05 04:00:04;;;;;;;28.90;19.90;;;;;;;-5.80;90.11;96980.64;110068;1247;59689;-64
2022/04/05 04:02:43;;;;;;;25.80;15.70;;;;;;;-5.81;89.79;96980.48;110212;1245;71130;-67
2022/04/05 04:05:17;;;;;;;;;;;;;;;-5.81;89.56;96978.11;110136;1247;69506;-64
2022/04/05 04:07:48;;;;;;;44.70;26.30;;;;;;;-5.77;90.67;96970.06;109836;1248;69475;-67
2022/04/05 04:10:18;;;;;;;45.70;24.10;;;;;;;-5.72;91.29;96968.80;110142;1247;60169;-64
2022/04/05 04:12:54;;;;;;;43.50;24.50;;;;;;;-5.67;91.07;96969.91;110057;1247;59662;-63
2022/04/05 04:15:26;;;;;;;50.80;25.90;;;;;;;-5.62;91.31;96969.16;109972;1248;71573;-64
2022/04/05 04:17:56;;;;;;;57.90;29.60;;;;;;;-5.54;91.02;96972.27;109817;1250;69859;-61
2022/04/05 04:20:26;;;;;;;70.00;33.10;;;;;;;-5.42;91.32;96974.95;109933;1248;69445;-60
2022/04/05 04:22:56;;;;;;;63.10;29.70;;;;;;;-5.26;91.05;96973.48;109781;1249;59720;-60
2022/04/05 04:25:26;;;;;;;59.80;27.20;;;;;;;-5.05;91.23;96971.74;109898;1247;59685;-67
2022/04/05 04:27:57;;;;;;;74.70;32.80;;;;;;;-4.85;90.64;96972.08;109698;1250;70906;-63
2022/04/05 04:30:29;;;;;;;35.40;19.60;;;;;;;-4.65;89.79;96972.02;109701;1250;68668;-67
2022/04/05 04:32:59;;;;;;;36.10;17.50;;;;;;;-4.41;89.31;96971.02;109931;1249;68466;-67
2022/04/05 04:35:30;;;;;;;31.10;18.20;;;;;;;-4.15;89.01;96970.98;109831;1249;60202;-62
2022/04/05 04:38:07;;;;;;;32.20;17.90;;;;;;;-3.84;88.82;96974.04;109970;1249;59676;-63
2022/04/05 04:40:37;;;;;;;57.00;33.50;;;;;;;-3.59;88.60;96975.67;109984;1247;71744;-69
2022/04/05 04:43:07;;;;;;;28.70;18.80;;;;;;;-3.42;86.93;96977.14;109843;1249;69496;-68
2022/04/05 04:45:37;;;;;;;30.50;18.90;;;;;;;-3.27;86.04;96972.68;110020;1248;69685;-67
2022/04/05 04:48:06;;;;;;;32.90;21.90;;;;;;;-3.06;86.47;96965.50;109765;1249;59756;-69
2022/04/05 04:50:37;;;;;;;48.00;30.80;;;;;;;-2.83;86.41;96966.92;109842;1250;59687;-67
2022/04/05 04:53:05;;;;;;;46.30;28.90;;;;;;;-2.54;87.14;96965.30;109913;1249;71592;-67
2022/04/05 04:55:35;;;;;;;36.20;24.00;;;;;;;-2.36;84.18;96966.33;109990;1250;69320;-64
2022/04/05 04:58:25;;;;;;;33.40;21.30;;;;;;;-2.13;84.20;96960.53;109856;1249;68726;-63
2022/04/05 05:00:54;;;;;;;33.40;21.80;;;;;;;-1.95;83.12;96958.80;109849;1250;59709;-63
2022/04/05 05:03:24;;;;;;;29.70;21.90;;;;;;;-1.75;82.76;96957.18;109700;1249;59688;-63
2022/04/05 05:05:54;;;;;;;30.80;21.70;;;;;;;-1.65;79.50;96959.08;109950;1249;71565;-64
2022/04/05 05:08:23;;;;;;;31.60;21.60;;;;;;;-1.53;79.31;96959.03;109992;1247;69396;-67
2022/04/05 05:10:53;;;;;;;30.90;20.70;;;;;;;-1.37;79.21;96966.71;109891;1248;69523;-65
2022/04/05 05:13:22;;;;;;;22.80;15.20;;;;;;;-1.14;79.33;96967.52;109864;1250;59685;-63
2022/04/05 05:15:52;;;;;;;;;;;;;;;-0.89;78.76;96968.02;109959;1248;59669;-63
2022/04/05 05:18:22;;;;;;;24.90;15.80;;;;;;;-0.68;77.79;96966.95;109941;1248;70760;-66
2022/04/05 05:20:51;;;;;;;23.60;15.70;;;;;;;-0.37;80.18;96962.79;110069;1248;68826;-62
2022/04/05 05:23:21;;;;;;;26.30;17.50;;;;;;;0.02;81.44;96963.73;109843;1250;69388;-62
2022/04/05 05:25:51;;;;;;;;;;;;;;;0.36;80.70;96966.50;110019;1249;59752;-64
2022/04/05 05:28:21;;;;;;;33.40;22.40;;;;;;;0.60;75.14;96964.02;110029;1248;59699;-62
2022/04/05 05:30:50;;;;;;;34.80;23.10;;;;;;;0.71;73.54;96963.22;109876;1248;71811;-64
2022/04/05 05:33:21;;;;;;;28.30;20.20;;;;;;;0.82;73.11;96959.52;110022;1248;67748;-63
2022/04/05 05:35:52;;;;;;;42.20;30.60;;;;;;;0.96;73.09;96956.86;110097;1248;69393;-69
2022/04/05 05:38:25;;;;;;;36.40;23.80;;;;;;;1.23;76.06;96955.91;109817;1248;59723;-69
2022/04/05 05:41:01;;;;;;;34.00;21.90;;;;;;;1.63;78.27;96951.27;110091;1247;59621;-68
2022/04/05 05:43:33;;;;;;;40.90;26.80;;;;;;;1.99;74.20;96946.20;109703;1251;72235;-64
2022/04/05 05:46:03;;;;;;;35.40;25.50;;;;;;;2.31;72.17;96946.60;109782;1250;68619;-62
2022/04/05 05:48:34;;;;;;;33.70;25.30;;;;;;;2.43;66.28;96943.42;109762;1250;69243;-70
2022/04/05 05:51:05;;;;;;;28.10;21.30;;;;;;;2.62;66.70;96944.10;110028;1247;59710;-61
2022/04/05 05:53:35;;;;;;;40.50;28.60;;;;;;;2.63;64.25;96945.95;110091;1245;59671;-68
2022/04/05 05:56:05;;;;;;;26.90;20.50;;;;;;;2.81;65.63;96946.09;110034;1247;71546;-63
2022/04/05 05:58:36;;;;;;;25.20;19.50;;;;;;;3.14;64.93;96949.80;110059;1247;68862;-62
2022/04/05 06:01:06;;;;;;;25.90;21.10;;;;;;;3.45;66.85;96947.19;110077;1247;69622;-68
2022/04/05 06:03:35;;;;;;;26.90;21.50;;;;;;;4.00;72.23;96944.80;110040;1248;60104;-64
2022/04/05 06:06:06;;;;;;;26.80;21.00;;;;;;;4.21;61.17;96941.91;109959;1250;59682;-69
2022/04/05 06:08:37;;;;;;;22.30;17.40;;;;;;;4.43;62.91;96939.52;109871;1248;70594;-64
2022/04/05 06:11:08;;;;;;;24.30;19.60;;;;;;;4.24;57.02;96935.38;110191;1248;69387;-62
2022/04/05 06:13:37;;;;;;;;;;;;;;;4.51;61.46;96938.02;110037;1247;69417;-63
2022/04/05 06:16:10;;;;;;;28.60;21.30;;;;;;;4.35;56.29;96939.09;110038;1247;59762;-63
2022/04/05 06:18:43;;;;;;;25.50;19.70;;;;;;;4.57;56.78;96940.95;110026;1248;59652;-66
2022/04/05 06:21:19;;;;;;;25.30;19.20;;;;;;;4.56;58.35;96939.27;109727;1251;71854;-61
2022/04/05 06:23:48;;;;;;;24.20;18.90;;;;;;;4.71;57.58;96935.84;110110;1248;68570;-61
2022/04/05 06:26:18;;;;;;;26.20;22.10;;;;;;;5.20;57.91;96934.40;109379;1248;869394;-62
2022/04/05 06:28:54;;;;;;;24.10;18.40;;;;;;;5.21;54.45;96935.20;110081;1247;59677;-60
2022/04/05 06:31:42;;;;;;;20.30;15.20;;;;;;;5.25;55.40;96940.69;110050;1247;59678;-62
2022/04/05 06:34:13;;;;;;;18.50;14.70;;;;;;;5.47;54.63;96936.23;110008;1247;70806;-61
2022/04/05 06:36:43;;;;;;;19.90;14.80;;;;;;;5.84;54.17;96931.41;109885;1251;69560;-62
2022/04/05 06:39:13;;;;;;;18.00;14.90;;;;;;;6.02;52.64;96928.63;109809;1249;67689;-61
2022/04/05 06:41:45;;;;;;;20.70;17.00;;;;;;;5.74;52.05;96931.69;110061;1247;59791;-61
2022/04/05 06:44:19;;;;;;;17.50;14.50;;;;;;;5.54;52.22;96934.12;110029;1247;59674;-63
2022/04/05 06:46:51;;;;;;;20.00;15.40;;;;;;;5.61;52.73;96931.92;110022;1248;71522;-62
2022/04/05 06:49:33;;;;;;;18.00;15.20;;;;;;;5.63;51.26;96930.95;109768;1248;69194;-62
2022/04/05 06:52:19;;;;;;;18.80;14.50;;;;;;;5.61;50.61;96928.35;109892;1248;69356;-63
2022/04/05 06:54:56;;;;;;;17.10;13.30;;;;;;;5.44;50.62;96924.48;109985;1247;59704;-63
2022/04/05 06:57:33;;;;;;;18.30;13.80;;;;;;;5.44;50.55;96921.90;109984;1247;59731;-61
2022/04/05 07:00:12;;;;;;;17.90;13.40;;;;;;;5.36;49.67;96918.77;109973;1248;72329;-62
2022/04/05 07:02:53;;;;;;;16.50;13.10;;;;;;;5.51;50.87;96922.55;110071;1247;68860;-62
2022/04/05 07:05:28;;;;;;;15.90;13.00;;;;;;;5.90;50.12;96913.08;109860;1248;69368;-62
2022/04/05 07:08:10;;;;;;;18.60;13.70;;;;;;;5.87;49.56;96911.99;109939;1249;59672;-62
2022/04/05 07:10:45;;;;;;;15.80;13.40;;;;;;;5.51;49.40;96913.52;110039;1247;59678;-61
2022/04/05 07:13:19;;;;;;;14.80;12.80;;;;;;;5.27;50.19;96913.73;110097;1247;71448;-62
2022/04/05 07:15:53;;;;;;;15.70;12.60;;;;;;;5.00;50.47;96914.63;110124;1247;69846;-62
2022/04/05 07:18:29;;;;;;;13.60;12.00;;;;;;;4.76;51.49;96916.26;109859;1247;69471;-62
2022/04/05 07:21:08;;;;;;;14.20;12.10;;;;;;;4.97;50.77;96918.84;110034;1247;59747;-62
2022/04/05 07:23:48;;;;;;;14.30;12.50;;;;;;;5.18;49.48;96913.25;109769;1248;59755;-61
2022/04/05 07:26:23;;;;;;;13.90;12.00;;;;;;;5.12;49.91;96911.85;109918;1247;70699;-63
2022/04/05 07:28:55;;;;;;;15.10;11.80;;;;;;;5.27;50.28;96909.46;110069;1247;69392;-60
2022/04/05 07:31:30;;;;;;;15.90;12.60;;;;;;;5.54;50.17;96909.75;110083;1247;68690;-62
2022/04/05 07:34:24;;;;;;;14.30;12.50;;;;;;;6.03;47.92;96911.75;109849;1250;59744;-62
2022/04/05 07:36:57;;;;;;;15.40;12.60;;;;;;;6.07;47.61;96909.11;110049;1247;59756;-65
2022/04/05 07:39:36;;;;;;;15.50;12.40;;;;;;;6.21;47.76;96908.23;110040;1248;70831;-64
2022/04/05 07:42:15;;;;;;;16.50;12.40;;;;;;;6.85;47.37;96913.95;109780;1248;69253;-63
2022/04/05 07:44:51;;;;;;;15.00;13.30;;;;;;;7.25;46.71;96914.27;110019;1247;69417;-64
2022/04/05 07:47:28;;;;;;;13.90;12.50;;;;;;;7.70;45.57;96909.09;110164;1247;59736;-60
2022/04/05 07:50:06;;;;;;;15.80;12.90;;;;;;;7.90;44.86;96908.02;110191;1247;59722;-62
2022/04/05 07:52:40;;;;;;;14.70;13.00;;;;;;;8.35;45.20;96910.27;110064;1248;71619;-63
2022/04/05 07:55:14;;;;;;;15.40;13.10;;;;;;;8.63;43.24;96907.19;110061;1247;68159;-61
2022/04/05 07:57:54;;;;;;;14.40;12.90;;;;;;;8.66;43.67;96902.45;110039;1246;68609;-62
2022/04/05 08:00:29;;;;;;;12.80;11.50;;;;;;;8.93;42.82;96904.98;110078;1248;59781;-62
2022/04/05 08:03:08;;;;;;;16.10;13.70;;;;;;;9.25;42.89;96902.73;110048;1248;59750;-62
2022/04/05 08:05:43;;;;;;;13.80;11.90;;;;;;;9.58;43.18;96903.73;110117;1247;70866;-62
2022/04/05 08:08:18;;;;;;;11.30;10.10;;;;;;;10.01;41.25;96897.80;109966;1249;70170;-66
2022/04/05 08:11:12;;;;;;;12.70;11.40;;;;;;;10.48;40.85;96896.02;110082;1248;69517;-62
2022/04/05 08:13:47;;;;;;;12.80;11.50;;;;;;;10.80;39.04;96895.52;109970;1250;59732;-62
2022/04/05 08:16:20;;;;;;;11.30;10.10;;;;;;;10.92;38.08;96892.79;109830;1250;59656;-64
2022/04/05 08:18:52;;;;;;;13.10;11.10;;;;;;;10.98;38.21;96891.38;109906;1250;72677;-63
2022/04/05 08:21:24;;;;;;;11.80;10.60;;;;;;;10.99;37.97;96887.99;110083;1246;69301;-65
2022/04/05 08:23:57;;;;;;;11.30;10.10;;;;;;;10.68;37.79;96893.15;109747;1250;69125;-65
2022/04/05 08:26:47;;;;;;;12.20;10.60;;;;;;;11.04;37.19;96889.52;109662;1251;59754;-70
2022/04/05 08:29:19;;;;;;;11.80;10.40;;;;;;;11.44;36.46;96886.52;109959;1250;59706;-63
2022/04/05 08:31:51;;;;;;;12.70;11.40;;;;;;;11.85;36.24;96879.64;110000;1248;71419;-62
2022/04/05 08:34:25;;;;;;;12.40;11.10;;;;;;;11.80;36.09;96875.10;110040;1247;69359;-61
2022/04/05 08:37:05;;;;;;;10.80;9.70;;;;;;;11.72;35.70;96865.92;109989;1246;68946;-67
2022/04/05 08:39:37;;;;;;;15.10;9.70;;;;;;;12.22;36.47;96864.59;109822;1248;59708;-59
2022/04/05 08:42:20;;;;;;;10.50;9.50;;;;;;;12.59;35.49;96857.26;109830;1248;59775;-62
2022/04/05 08:44:56;;;;;;;12.20;10.90;;;;;;;13.04;34.99;96854.08;110016;1247;71724;-62
2022/04/05 08:47:34;;;;;;;11.30;10.20;;;;;;;12.95;34.33;96854.38;109805;1250;69296;-61
2022/04/05 08:50:09;;;;;;;9.60;8.70;;;;;;;12.34;34.17;96843.98;109800;1248;69430;-62
2022/04/05 08:52:44;;;;;;;10.40;9.30;;;;;;;12.47;33.91;96840.46;109978;1247;59701;-61
2022/04/05 08:55:19;;;;;;;10.80;9.70;;;;;;;11.62;34.53;96843.92;109936;1247;59738;-61
2022/04/05 08:57:58;;;;;;;11.20;10.10;;;;;;;11.88;34.83;96841.52;109922;1250;70770;-61
2022/04/05 09:00:28;;;;;;;11.00;9.40;;;;;;;11.02;36.11;96840.40;109961;1248;69553;-61
2022/04/05 09:03:08;;;;;;;11.80;10.20;;;;;;;11.44;36.45;96839.32;110013;1250;68980;-62
2022/04/05 09:05:47;;;;;;;11.70;10.40;;;;;;;12.11;36.08;96832.89;110081;1247;59748;-61
2022/04/05 09:08:31;;;;;;;10.90;9.50;;;;;;;11.96;35.38;96829.81;109767;1251;59649;-62
2022/04/05 09:11:08;;;;;;;10.00;9.00;;;;;;;12.35;34.77;96828.29;110029;1247;71608;-63
2022/04/05 09:13:41;;;;;;;11.70;10.50;;;;;;;12.64;34.76;96825.67;110046;1247;68453;-65
2022/04/05 09:16:28;;;;;;;10.80;9.70;;;;;;;13.26;33.99;96820.27;109772;1248;69294;-63
2022/04/05 09:19:14;;;;;;;10.50;9.50;;;;;;;14.00;33.22;96820.55;109900;1249;59761;-64
2022/04/05 09:22:00;;;;;;;12.50;10.50;;;;;;;14.08;32.09;96825.58;110030;1247;59689;-62
2022/04/05 09:24:40;;;;;;;9.50;8.50;;;;;;;13.57;32.43;96820.30;110063;1247;71563;-63
2022/04/05 09:27:12;;;;;;;8.90;8.00;;;;;;;12.98;32.97;96815.23;110151;1248;69498;-62
2022/04/05 09:29:51;;;;;;;10.50;9.50;;;;;;;13.51;33.25;96818.96;110045;1247;68481;-63
2022/04/05 09:32:42;;;;;;;9.50;8.60;;;;;;;13.23;33.03;96814.08;109836;1248;59745;-62
2022/04/05 09:35:15;;;;;;;10.60;8.90;;;;;;;13.46;33.28;96808.56;109898;1247;60072;-63
2022/04/05 09:37:53;;;;;;;9.70;8.70;;;;;;;13.52;32.77;96810.26;110108;1247;70783;-59
2022/04/05 09:40:38;;;;;;;10.00;9.00;;;;;;;12.70;33.15;96805.54;110017;1247;69219;-63
2022/04/05 09:43:31;;;;;;;9.60;8.60;;;;;;;12.39;33.45;96800.56;110030;1248;69236;-61
2022/04/05 09:46:05;;;;;;;9.40;8.40;;;;;;;12.78;33.89;96792.64;110074;1247;59705;-65
2022/04/05 09:48:37;;;;;;;8.80;7.80;;;;;;;12.92;33.31;96791.02;110094;1247;59668;-62
2022/04/05 09:51:17;;;;;;;9.50;7.90;;;;;;;12.68;33.01;96787.89;110111;1247;71373;-62
2022/04/05 09:53:57;;;;;;;8.90;7.10;;;;;;;12.54;33.15;96785.39;110046;1247;67957;-62
2022/04/05 09:56:41;;;;;;;8.90;8.00;;;;;;;12.90;33.19;96776.48;110111;1247;69463;-62
2022/04/05 09:59:18;;;;;;;9.00;7.00;;;;;;;12.67;32.90;96773.70;110136;1246;60003;-63
2022/04/05 10:02:12;;;;;;;8.90;7.70;;;;;;;13.21;33.35;96768.91;110124;1247;59722;-63
2022/04/05 10:05:06;;;;;;;8.50;7.60;;;;;;;14.09;31.85;96768.94;110183;1247;71178;-61
2022/04/05 10:07:41;;;;;;;8.40;7.40;;;;;;;14.04;31.20;96761.55;109850;1248;68698;-65
2022/04/05 10:10:19;;;;;;;7.20;5.80;;;;;;;13.71;31.24;96768.84;110030;1247;69437;-60
2022/04/05 10:12:58;;;;;;;7.50;6.70;;;;;;;12.11;31.84;96758.98;110101;1247;59688;-62
2022/04/05 10:15:35;;;;;;;8.00;7.20;;;;;;;12.80;31.51;96755.51;110084;1247;59754;-62
2022/04/05 10:18:14;;;;;;;7.30;6.40;;;;;;;13.30;31.13;96750.55;110225;1247;70970;-60
2022/04/05 10:20:52;;;;;;;8.60;6.60;;;;;;;13.74;30.68;96742.75;110089;1247;69708;-61
2022/04/05 10:23:27;;;;;;;7.80;7.10;;;;;;;13.97;30.95;96740.50;110177;1245;68518;-63
2022/04/05 10:26:10;;;;;;;7.90;6.80;;;;;;;13.56;30.74;96742.02;110022;1247;59753;-61
2022/04/05 10:28:49;;;;;;;7.00;6.00;;;;;;;13.28;31.20;96740.05;109870;1248;59694;-63
2022/04/05 10:31:52;;;;;;;7.30;6.60;;;;;;;13.57;31.97;96738.38;110082;1247;70721;-62
2022/04/05 10:34:50;;;;;;;10.30;7.20;;;;;;;13.14;31.31;96725.78;110092;1247;68640;-62
2022/04/05 10:37:43;;;;;;;8.30;6.50;;;;;;;12.86;32.18;96725.58;110068;1247;69253;-64
2022/04/05 10:40:21;;;;;;;6.60;5.90;;;;;;;13.00;32.12;96727.77;110059;1247;59734;-62
2022/04/05 10:42:57;;;;;;;7.50;6.30;;;;;;;12.81;31.28;96716.84;110112;1247;59671;-63
2022/04/05 10:45:42;;;;;;;7.20;5.10;;;;;;;12.90;31.58;96713.36;110144;1247;71592;-63
2022/04/05 10:48:27;;;;;;;5.90;4.90;;;;;;;13.14;31.18;96713.06;109821;1247;69383;-63
2022/04/05 10:51:03;;;;;;;6.70;6.00;;;;;;;13.58;30.04;96718.14;110056;1248;69220;-63
2022/04/05 10:56:42;;;;;;;6.30;5.70;;;;;;;13.68;30.46;96713.89;110099;1246;59696;-61
2022/04/05 10:59:22;;;;;;;6.80;5.80;;;;;;;13.52;30.60;96709.25;110084;1247;70776;-62
2022/04/05 11:01:59;;;;;;;6.10;5.50;;;;;;;13.67;29.89;96709.54;110080;1247;68642;-64
2022/04/05 11:04:34;;;;;;;7.00;5.10;;;;;;;14.44;28.79;96697.69;109856;1248;68678;-62
2022/04/05 11:07:11;;;;;;;6.10;5.50;;;;;;;14.72;27.85;96686.32;110086;1247;60029;-61
2022/04/05 11:09:55;;;;;;;5.90;5.30;;;;;;;14.30;28.68;96686.25;110003;1248;59712;-61
2022/04/05 11:12:31;;;;;;;6.20;5.60;;;;;;;14.03;28.45;96685.23;110140;1247;70844;-63
2022/04/05 11:15:14;;;;;;;6.80;5.80;;;;;;;14.08;27.76;96683.88;110027;1248;68425;-61
2022/04/05 11:17:51;;;;;;;6.70;4.70;;;;;;;13.52;29.02;96683.13;110086;1247;68774;-61
2022/04/05 11:20:35;;;;;;;6.00;5.10;;;;;;;13.90;28.95;96678.27;109966;1248;59732;-62
2022/04/05 11:23:16;;;;;;;6.10;5.50;;;;;;;14.51;27.44;96674.67;110063;1247;59631;-63
2022/04/05 11:26:26;;;;;;;6.40;5.80;;;;;;;14.97;27.28;96672.02;110093;1247;70769;-62
2022/04/05 11:29:02;;;;;;;9.00;6.10;;;;;;;15.47;26.81;96664.73;110098;1247;69729;-61
2022/04/05 11:31:40;;;;;;;7.40;5.80;;;;;;;14.50;27.82;96665.30;110096;1247;69297;-61
2022/04/05 11:34:46;;;;;;;7.30;6.00;;;;;;;14.96;27.78;96660.25;110004;1247;59814;-63
2022/04/05 11:37:34;;;;;;;5.90;5.20;;;;;;;14.63;28.52;96652.80;110170;1246;59739;-62
2022/04/05 11:40:11;;;;;;;6.70;5.80;;;;;;;14.82;28.26;96650.88;109982;1248;71536;-62
2022/04/05 11:42:48;;;;;;;5.80;5.30;;;;;;;15.45;26.50;96653.73;109847;1248;69374;-61
2022/04/05 11:45:29;;;;;;;7.40;5.50;;;;;;;15.02;26.88;96645.29;110066;1247;69710;-61
2022/04/05 11:48:05;;;;;;;6.30;5.60;;;;;;;14.66;27.47;96637.04;110120;1247;59718;-61
2022/04/05 11:50:42;;;;;;;7.40;5.80;;;;;;;13.71;29.24;96637.77;109904;1247;59760;-61
2022/04/05 11:53:30;;;;;;;6.90;6.00;;;;;;;13.00;30.99;96634.23;110108;1247;71487;-62